• Join FlightAware (Why Join?)
  • Login
  • US Flag 
05:45AM EDT


 

Airport Tracker/Info


-or-


 

Live Flight TrackerFlight Track Log ✈ EGF3231 ✈ 28-Apr-2012 ✈ KAMA - KDFW

Flight Track Log - Related Links

Times and Time Zones

All times are in EDT time to prevent confusion due to time zone crossing. See the EGF3231 flight status page for this flight to view local times or setup timezone preferences in your user account.

Time Position Orientation Groundspeed Altitude Reporting Facility
EDT Latitude Longitude Course Direction KTS MPH feet Rate Location/Type
07:01PM 35.2037 -101.6870 118° Southeast  Level FlightAware Approximate
07:02PM 35.1711 -101.6108 92° East 237 273 6,100  Level Albuquerque Center
07:03PM 35.1689 -101.5222 116° Southeast 261 300 8,300 1,860 Climbing Albuquerque Center
07:04PM 35.1333 -101.4333 117° Southeast 267 307 9,900 1,200 Climbing Albuquerque Center
07:05PM 35.0906 -101.3322 117° Southeast 300 345 10,700 1,140 Climbing Albuquerque Center
07:06PM 35.0456 -101.2239 117° Southeast 340 391 12,200 1,380 Climbing Albuquerque Center
07:07PM 34.9978 -101.1111 117° Southeast 358 412 13,500 1,200 Climbing Albuquerque Center
07:08PM 34.9478 -100.9933 118° Southeast 375 432 14,600 1,140 Climbing Albuquerque Center
07:09PM 34.8933 -100.8689 117° Southeast 387 445 15,800 1,320 Climbing Fort Worth Center
07:10PM 34.8422 -100.7478 117° Southeast 405 466 17,200 1,260 Climbing Fort Worth Center
07:11PM 34.7914 -100.6272 118° Southeast 405 466 18,400 1,200 Climbing Fort Worth Center
07:12PM 34.7381 -100.5039 117° Southeast 405 466 19,700 1,020 Climbing Fort Worth Center
07:13PM 34.6847 -100.3781 118° Southeast 405 466 20,500 900 Climbing Fort Worth Center
07:14PM 34.6272 -100.2475 119° Southeast 416 479 21,500 960 Climbing Fort Worth Center
07:15PM 34.5697 -100.1194 118° Southeast 428 493 22,500 960 Climbing Fort Worth Center
07:16PM 34.5119 -99.9867 117° Southeast 433 498 23,500 960 Climbing Fort Worth Center
07:17PM 34.4561 -99.8539 119° Southeast 440 506 24,500 960 Climbing Fort Worth Center
07:18PM 34.3961 -99.7214 117° Southeast 440 506 25,500 840 Climbing Fort Worth Center
07:19PM 34.3500 -99.6119 118° Southeast 440 506 26,300 960 Climbing Fort Worth Center
07:20PM 34.2858 -99.4669 118° Southeast 440 506 27,500 1,500 Climbing Fort Worth Center
07:21PM 34.2294 -99.3400 119° Southeast 433 498 29,400 1,740 Climbing Fort Worth Center
07:22PM 34.1747 -99.2208 121° Southeast 427 491 31,000 780 Climbing Fort Worth Center
07:23PM 34.1058 -99.0839 125° Southeast 421 484 31,000  Level Fort Worth Center
07:24PM 34.0344 -98.9600 127° Southeast 445 512 31,000  Level Fort Worth Center
07:25PM 33.9586 -98.8383 112° Southeast 457 526 31,000 -660 Level Fort Worth Center
07:26PM 33.9081 -98.6897 113° Southeast 463 533 29,700 -1,680 Descending Fort Worth Center
07:27PM 33.8614 -98.5592 121° Southeast 469 540 27,700 -2,400 Descending Fort Worth Center
07:28PM 33.7936 -98.4258 119° Southeast 469 540 24,900 -2,700 Descending Fort Worth Center
07:29PM 33.7278 -98.2850 115° Southeast 469 540 22,300 -2,580 Descending Fort Worth Center
07:30PM 33.6744 -98.1497 118° Southeast 464 534 19,800 4,320 Descending Fort Worth Center
07:31PM 33.6189 -98.0222 116° Southeast 442 509 31,000 -2,640 Climbing Fort Worth Center
07:32PM 33.5672 -97.8972 118° Southeast 422 486 14,600 -10,980 Descending Fort Worth Center
07:33PM 33.5328 -97.8181 133° Southeast 400 460 13,100 -2,220 Descending FAA TRACON SMA TRACON (SMA)
07:34PM 33.4844 -97.7567 136° Southeast 361 415 11,700 -1,980 Descending FAA TRACON SMA TRACON (SMA)
07:34PM 33.4375 -97.7031 137° Southeast 330 380 10,500 -1,500 Descending FAA TRACON SMA TRACON (SMA)
07:35PM 33.3994 -97.6603 136° Southeast 302 348 9,800 -1,200 Descending FAA TRACON SMA TRACON (SMA)
07:36PM 33.3614 -97.6161 134° Southeast 272 313 8,900 -1,440 Descending FAA TRACON SMA TRACON (SMA)
07:36PM 33.3253 -97.5717 136° Southeast 271 312 7,900 -1,500 Descending FAA TRACON SMA TRACON (SMA)
07:37PM 33.2919 -97.5325 112° Southeast 272 313 7,000 -1,260 Descending FAA TRACON SMA TRACON (SMA)
07:38PM 33.2719 -97.4733 111° Southeast 276 318 6,300 -1,080 Descending FAA TRACON SMA TRACON (SMA)
07:38PM 33.2528 -97.4150 121° Southeast 271 312 5,600 -900 Descending FAA TRACON SMA TRACON (SMA)
07:39PM 33.2264 -97.3631 127° Southeast 263 303 5,100 -540 Descending FAA TRACON SMA TRACON (SMA)
07:40PM 33.1997 -97.3208 125° Southeast 257 296 4,900 -120 Descending FAA TRACON SMA TRACON (SMA)
07:40PM 33.1742 -97.2778 126° Southeast 260 299 5,000  Climbing FAA TRACON SMA TRACON (SMA)
07:41PM 33.1419 -97.2242 127° Southeast 259 298 4,900 -540 Descending FAA TRACON SMA TRACON (SMA)
07:42PM 33.1161 -97.1825 127° Southeast 255 293 4,300 -960 Descending FAA TRACON SMA TRACON (SMA)